Asphalt Star — SVVF — position and weather

sailwx.info

Track history (hours):
 
Tides and Currents Weather Stations Pressure Air Temp Water Temp Dewpoint Dewpoint Depression Visibility Wind Speed Wind Dir Waves Ship Positions

Asphalt Star

Last reported at 2018-Jan-10 13:39 UTC. Time now 2018-May-21 07:05 UTC.
Position N 36°18' E 023°09'.
Warning: this ship's position is months out of date.

Length 183 m; draft 8.5 m.

Type: Tanker. MMSI: 239939000.

Date/timePositionNaut miles runAvg speedWind from/ knotsBaromVisibWave heightAir tempDewpointWater temp
2018-Jan-10 13:39N 36°18' E 023°09'1 0.8
2018-Jan-10 12:30N 36°19' E 023°09'2 3.9
2018-Jan-10 12:00N 36°20' E 023°08'1 1.9
2018-Jan-10 11:23N 36°19' E 023°09'0 1.2
2018-Jan-10 11:00N 36°19' E 023°09'1 1.0
2018-Jan-10 10:20N 36°19' E 023°10'1 1.1
2018-Jan-10 09:51N 36°18' E 023°10'0 1.1
2018-Jan-10 09:30N 36°18' E 023°11'1 1.1
2018-Jan-10 09:00N 36°18' E 023°11'1 1.2
2018-Jan-10 08:19N 36°17' E 023°12'0 0.9
2018-Jan-10 08:00N 36°17' E 023°12'2 3.6
2018-Jan-10 07:30N 36°15' E 023°13'5 9.9
2018-Jan-10 07:00N 36°10' E 023°13'5 9.8
2018-Jan-10 06:30N 36°05' E 023°13'2 2.2
2018-Jan-10 05:49N 36°04' E 023°13'0 1.3
2018-Jan-10 05:30N 36°04' E 023°13'1 1.2
2018-Jan-10 04:57N 36°05' E 023°14'1 1.1
2018-Jan-10 04:27N 36°05' E 023°14'0 1.1
2018-Jan-10 04:00N 36°06' E 023°14'1 1.1
2018-Jan-10 03:29N 36°06' E 023°14'1 1.2
2018-Jan-10 02:56N 36°07' E 023°14'1 1.2
2018-Jan-10 02:25N 36°08' E 023°14'1 1.1
2018-Jan-10 01:35N 36°08' E 023°15'0 1.2
2018-Jan-10 01:30N 36°09' E 023°15'1 1.1
2018-Jan-10 01:00N 36°09' E 023°15'1 1.1
2018-Jan-10 00:28N 36°10' E 023°15'0 1.0
2018-Jan-10 00:00N 36°10' E 023°15'0 0.9
2018-Jan-09 23:28N 36°11' E 023°15'1 0.9
2018-Jan-09 22:48N 36°11' E 023°15'0 0.8
2018-Jan-09 22:23N 36°11' E 023°16'0 0.8
2018-Jan-09 21:55N 36°12' E 023°16'0 0.8
2018-Jan-09 21:30N 36°12' E 023°16'0 0.9
2018-Jan-09 21:00N 36°13' E 023°16'1 1.0
2018-Jan-09 20:18N 36°13' E 023°15'0 1.0
2018-Jan-09 20:00N 36°14' E 023°15'0 0.9
2018-Jan-09 19:30N 36°14' E 023°15'0 0.7
2018-Jan-09 18:59N 36°14' E 023°15'0 0.7
2018-Jan-09 18:30N 36°15' E 023°15'0 0.7
2018-Jan-09 18:00N 36°15' E 023°15'0 0.8
2018-Jan-09 17:30N 36°16' E 023°15'0 0.7
2018-Jan-09 16:59N 36°16' E 023°15'0 0.6
2018-Jan-09 16:30N 36°16' E 023°15'0 0.5
2018-Jan-09 15:58N 36°16' E 023°16'0 0.5
2018-Jan-09 15:28N 36°17' E 023°16'0 0.5
2018-Jan-09 14:59N 36°17' E 023°16'0 0.5
2018-Jan-09 14:27N 36°17' E 023°16'0 0.5
2018-Jan-09 13:58N 36°17' E 023°16'0 0.5
2018-Jan-09 13:29N 36°17' E 023°16'0 0.4
2018-Jan-09 12:44N 36°18' E 023°17'0 0.3
2018-Jan-09 12:30N 36°18' E 023°17'0 0.3
2018-Jan-09 12:00N 36°18' E 023°17'0 0.2
2018-Jan-09 11:29N 36°18' E 023°17'0 0.2
2018-Jan-09 10:59N 36°18' E 023°17'0 0.2
2018-Jan-09 10:31N 36°18' E 023°17'0 0.1
2018-Jan-09 09:47N 36°18' E 023°17'0 0.1
2018-Jan-09 09:31N 36°18' E 023°17'0 0.2
2018-Jan-09 08:59N 36°18' E 023°17'0 0.2
2018-Jan-09 08:31N 36°18' E 023°17'0 0.2
2018-Jan-09 07:57N 36°18' E 023°17'0 0.2
2018-Jan-09 07:29N 36°17' E 023°17'0 0.2
2018-Jan-09 07:00N 36°17' E 023°17'0 0.2
2018-Jan-09 06:30N 36°17' E 023°17'0 0.2
2018-Jan-09 06:00N 36°17' E 023°17'0 0.2
2018-Jan-09 05:30N 36°17' E 023°17'0 0.2
2018-Jan-09 05:00N 36°17' E 023°17'0 0.2
2018-Jan-09 04:31N 36°17' E 023°17'0 0.2
2018-Jan-09 04:00N 36°17' E 023°17'0 0.2
2018-Jan-09 03:29N 36°17' E 023°17'0 0.3
2018-Jan-09 03:00N 36°17' E 023°17'0 0.3
2018-Jan-09 02:30N 36°17' E 023°16'0 0.3
2018-Jan-09 02:00N 36°17' E 023°16'0 0.4
2018-Jan-09 01:21N 36°17' E 023°16'0 0.4
2018-Jan-09 01:00N 36°17' E 023°16'0 0.4
2018-Jan-09 00:20N 36°17' E 023°16'0 0.4
2018-Jan-08 23:55N 36°16' E 023°15'1 0.6
2018-Jan-08 22:09N 36°16' E 023°14'0 0.0
2018-Jan-08 21:53N 36°16' E 023°14'0 0.6
2018-Jan-08 21:26N 36°15' E 023°14'0 0.7
2018-Jan-08 21:01N 36°15' E 023°14'0 0.7
2018-Jan-08 20:30N 36°15' E 023°14'0 0.6
2018-Jan-08 20:00N 36°15' E 023°13'0 0.7
2018-Jan-08 19:16N 36°15' E 023°13'1 0.8
2018-Jan-08 17:54N 36°16' E 023°12'1 3.5
2018-Jan-08 17:30N 36°17' E 023°11'5 9.1
2018-Jan-08 17:00N 36°20' E 023°07'0 0.7
2018-Jan-08 16:26N 36°20' E 023°07'1 0.5
2018-Jan-08 15:07N 36°20' E 023°08'0 0.6
2018-Jan-08 14:37N 36°20' E 023°08'0 0.7
2018-Jan-08 14:31N 36°20' E 023°08'0 0.8
2018-Jan-08 14:01N 36°19' E 023°08'0 0.8
2018-Jan-08 13:31N 36°19' E 023°09'0 0.7
2018-Jan-08 13:01N 36°19' E 023°09'0 0.7
2018-Jan-08 12:30N 36°18' E 023°09'0 0.6
2018-Jan-08 12:00N 36°18' E 023°09'0 0.4
2018-Jan-08 11:31N 36°18' E 023°10'0 0.4
2018-Jan-08 11:00N 36°18' E 023°10'0 0.4
2018-Jan-08 10:31N 36°18' E 023°10'0 0.3
2018-Jan-08 10:00N 36°18' E 023°10'0 0.2
2018-Jan-08 09:30N 36°18' E 023°10'0 0.2
2018-Jan-08 09:00N 36°18' E 023°11'0 0.2
2018-Jan-08 08:31N 36°18' E 023°11'0 0.3
2018-Jan-08 08:01N 36°18' E 023°11'0 0.2
2018-Jan-08 07:30N 36°18' E 023°11'0 0.2
2018-Jan-08 07:00N 36°18' E 023°11'0 0.3
2018-Jan-08 06:31N 36°18' E 023°11'0 0.4
2018-Jan-08 06:00N 36°18' E 023°11'3 0.2
2018-Jan-07 15:44N 36°21' E 023°10'0 0.8
2018-Jan-07 15:28N 36°21' E 023°10'0 0.7
2018-Jan-07 15:00N 36°20' E 023°10'0 0.8
2018-Jan-07 14:30N 36°20' E 023°09'0 0.8
2018-Jan-07 14:00N 36°20' E 023°09'0 0.8
2018-Jan-07 13:30N 36°19' E 023°09'0 0.8
2018-Jan-07 13:00N 36°19' E 023°09'0 0.7
2018-Jan-07 12:30N 36°19' E 023°08'0 0.5
2018-Jan-07 12:00N 36°19' E 023°08'0 0.5
2018-Jan-07 11:30N 36°18' E 023°08'0 0.4
2018-Jan-07 11:00N 36°18' E 023°08'0 0.5
2018-Jan-07 10:30N 36°18' E 023°07'1 1.6
2018-Jan-07 09:59N 36°18' E 023°06'0 0.6
2018-Jan-07 09:28N 36°18' E 023°06'0 0.5
2018-Jan-07 08:55N 36°19' E 023°06'18 7.5
2018-Jan-07 06:32N 36°19' E 023°28'0 3.3
2018-Jan-07 06:31N 36°19' E 023°28'0 1.0
2018-Jan-07 06:00N 36°19' E 023°28'0 0.4
2018-Jan-07 05:21N 36°19' E 023°28'1 0.5
2018-Jan-07 03:09N 36°19' E 023°26'0 0.7
2018-Jan-07 02:56N 36°18' E 023°26'0 0.7
2018-Jan-07 02:22N 36°18' E 023°26'0 0.7
2018-Jan-07 02:00N 36°18' E 023°25'0 0.8
2018-Jan-07 01:30N 36°18' E 023°25'1 0.7
2018-Jan-07 00:28N 36°18' E 023°24'0 0.5
2018-Jan-06 23:58N 36°18' E 023°24'0 0.5
2018-Jan-06 23:21N 36°18' E 023°23'0 0.5
2018-Jan-06 23:00N 36°18' E 023°23'0 0.4
2018-Jan-06 22:30N 36°18' E 023°23'0 0.3
2018-Jan-06 21:17N 36°18' E 023°22'0 0.4
2018-Jan-06 20:59N 36°18' E 023°22'0 0.4
2018-Jan-06 20:18N 36°18' E 023°22'0 0.3
2018-Jan-06 19:56N 36°18' E 023°22'0 0.4
2018-Jan-06 19:13N 36°18' E 023°21'0 0.3
2018-Jan-06 18:13N 36°18' E 023°21'0 0.3
2018-Jan-06 18:00N 36°18' E 023°21'0 0.2
2018-Jan-06 17:10N 36°17' E 023°21'1 0.4
2018-Jan-06 15:51N 36°17' E 023°20'0 0.5
2018-Jan-06 15:05N 36°17' E 023°20'0 0.5
2018-Jan-06 15:00N 36°17' E 023°20'1 0.5
2018-Jan-06 14:00N 36°17' E 023°19'1 0.5
2018-Jan-06 12:29N 36°16' E 023°19'0 0.5
2018-Jan-06 11:38N 36°16' E 023°18'0 0.4
2018-Jan-06 11:30N 36°16' E 023°18'0 0.3
2018-Jan-06 10:56N 36°16' E 023°18'0 0.3
2018-Jan-06 09:30N 36°15' E 023°18'1 0.3
2018-Jan-06 04:49N 36°15' E 023°16'0 0.3
2018-Jan-06 03:45N 36°15' E 023°16'1 0.4
2018-Jan-06 02:27N 36°16' E 023°15'0 0.4
2018-Jan-06 01:59N 36°16' E 023°15'0 0.4
2018-Jan-06 01:14N 36°16' E 023°15'0 0.5
2018-Jan-06 01:00N 36°16' E 023°14'0 0.4
2018-Jan-06 00:29N 36°16' E 023°14'0 0.3
2018-Jan-06 00:00N 36°16' E 023°14'0 0.2
2018-Jan-05 23:30N 36°16' E 023°14'0 0.3
2018-Jan-05 22:15N 36°16' E 023°14'0 0.4
2018-Jan-05 21:56N 36°16' E 023°13'1 0.4
2018-Jan-05 20:18N 36°15' E 023°13'  
2018-Jan-01 18:05N 36°19' E 023°04'0 0.1
2018-Jan-01 17:44N 36°19' E 023°04'0 0.1
2018-Jan-01 17:26N 36°19' E 023°04'0 0.0
2018-Jan-01 14:59N 36°19' E 023°04'0 0.1
2018-Jan-01 14:23N 36°19' E 023°04'0 0.0
2018-Jan-01 13:53N 36°19' E 023°04'0 0.0
2018-Jan-01 11:26N 36°19' E 023°04'0 0.0
2018-Jan-01 10:59N 36°19' E 023°04'0 0.1
2018-Jan-01 10:29N 36°19' E 023°04'0 0.2
2018-Jan-01 09:59N 36°19' E 023°04'0 0.0
2018-Jan-01 09:26N 36°19' E 023°04'0 0.0
2018-Jan-01 08:26N 36°19' E 023°04'0 0.0
2018-Jan-01 07:59N 36°19' E 023°04'0 0.0
2018-Jan-01 07:23N 36°19' E 023°04'0 0.1
2018-Jan-01 06:56N 36°19' E 023°04'0 0.1
2018-Jan-01 05:59N 36°19' E 023°04'  
Track history (hours):
 
Tides and Currents Weather Stations Pressure Air Temp Water Temp Dewpoint Dewpoint Depression Visibility Wind Speed Wind Dir Waves Ship Positions

Asphalt Star

Last reported at 2018-Jan-10 13:39 UTC. Time now 2018-May-21 07:05 UTC.
Position N 36°18' E 023°09'.
Warning: this ship's position is months out of date.

Length 183 m; draft 8.5 m.

Type: Tanker. MMSI: 239939000.

Date/timePositionNaut miles runAvg speedWind from/ knotsBaromVisibWave heightAir tempDewpointWater temp
2018-Jan-10 13:39N 36°18' E 023°09'1 0.8
2018-Jan-10 12:30N 36°19' E 023°09'2 3.9
2018-Jan-10 12:00N 36°20' E 023°08'1 1.9
2018-Jan-10 11:23N 36°19' E 023°09'0 1.2
2018-Jan-10 11:00N 36°19' E 023°09'1 1.0
2018-Jan-10 10:20N 36°19' E 023°10'1 1.1
2018-Jan-10 09:51N 36°18' E 023°10'0 1.1
2018-Jan-10 09:30N 36°18' E 023°11'1 1.1
2018-Jan-10 09:00N 36°18' E 023°11'1 1.2
2018-Jan-10 08:19N 36°17' E 023°12'0 0.9
2018-Jan-10 08:00N 36°17' E 023°12'2 3.6
2018-Jan-10 07:30N 36°15' E 023°13'5 9.9
2018-Jan-10 07:00N 36°10' E 023°13'5 9.8
2018-Jan-10 06:30N 36°05' E 023°13'2 2.2
2018-Jan-10 05:49N 36°04' E 023°13'0 1.3
2018-Jan-10 05:30N 36°04' E 023°13'1 1.2
2018-Jan-10 04:57N 36°05' E 023°14'1 1.1
2018-Jan-10 04:27N 36°05' E 023°14'0 1.1
2018-Jan-10 04:00N 36°06' E 023°14'1 1.1
2018-Jan-10 03:29N 36°06' E 023°14'1 1.2
2018-Jan-10 02:56N 36°07' E 023°14'1 1.2
2018-Jan-10 02:25N 36°08' E 023°14'1 1.1
2018-Jan-10 01:35N 36°08' E 023°15'0 1.2
2018-Jan-10 01:30N 36°09' E 023°15'1 1.1
2018-Jan-10 01:00N 36°09' E 023°15'1 1.1
2018-Jan-10 00:28N 36°10' E 023°15'0 1.0
2018-Jan-10 00:00N 36°10' E 023°15'0 0.9
2018-Jan-09 23:28N 36°11' E 023°15'1 0.9
2018-Jan-09 22:48N 36°11' E 023°15'0 0.8
2018-Jan-09 22:23N 36°11' E 023°16'0 0.8
2018-Jan-09 21:55N 36°12' E 023°16'0 0.8
2018-Jan-09 21:30N 36°12' E 023°16'0 0.9
2018-Jan-09 21:00N 36°13' E 023°16'1 1.0
2018-Jan-09 20:18N 36°13' E 023°15'0 1.0
2018-Jan-09 20:00N 36°14' E 023°15'0 0.9
2018-Jan-09 19:30N 36°14' E 023°15'0 0.7
2018-Jan-09 18:59N 36°14' E 023°15'0 0.7
2018-Jan-09 18:30N 36°15' E 023°15'0 0.7
2018-Jan-09 18:00N 36°15' E 023°15'0 0.8
2018-Jan-09 17:30N 36°16' E 023°15'0 0.7
2018-Jan-09 16:59N 36°16' E 023°15'0 0.6
2018-Jan-09 16:30N 36°16' E 023°15'0 0.5
2018-Jan-09 15:58N 36°16' E 023°16'0 0.5
2018-Jan-09 15:28N 36°17' E 023°16'0 0.5
2018-Jan-09 14:59N 36°17' E 023°16'0 0.5
2018-Jan-09 14:27N 36°17' E 023°16'0 0.5
2018-Jan-09 13:58N 36°17' E 023°16'0 0.5
2018-Jan-09 13:29N 36°17' E 023°16'0 0.4
2018-Jan-09 12:44N 36°18' E 023°17'0 0.3
2018-Jan-09 12:30N 36°18' E 023°17'0 0.3
2018-Jan-09 12:00N 36°18' E 023°17'0 0.2
2018-Jan-09 11:29N 36°18' E 023°17'0 0.2
2018-Jan-09 10:59N 36°18' E 023°17'0 0.2
2018-Jan-09 10:31N 36°18' E 023°17'0 0.1
2018-Jan-09 09:47N 36°18' E 023°17'0 0.1
2018-Jan-09 09:31N 36°18' E 023°17'0 0.2
2018-Jan-09 08:59N 36°18' E 023°17'0 0.2
2018-Jan-09 08:31N 36°18' E 023°17'0 0.2
2018-Jan-09 07:57N 36°18' E 023°17'0 0.2
2018-Jan-09 07:29N 36°17' E 023°17'0 0.2
2018-Jan-09 07:00N 36°17' E 023°17'0 0.2
2018-Jan-09 06:30N 36°17' E 023°17'0 0.2
2018-Jan-09 06:00N 36°17' E 023°17'0 0.2
2018-Jan-09 05:30N 36°17' E 023°17'0 0.2
2018-Jan-09 05:00N 36°17' E 023°17'0 0.2
2018-Jan-09 04:31N 36°17' E 023°17'0 0.2
2018-Jan-09 04:00N 36°17' E 023°17'0 0.2
2018-Jan-09 03:29N 36°17' E 023°17'0 0.3
2018-Jan-09 03:00N 36°17' E 023°17'0 0.3
2018-Jan-09 02:30N 36°17' E 023°16'0 0.3
2018-Jan-09 02:00N 36°17' E 023°16'0 0.4
2018-Jan-09 01:21N 36°17' E 023°16'0 0.4
2018-Jan-09 01:00N 36°17' E 023°16'0 0.4
2018-Jan-09 00:20N 36°17' E 023°16'0 0.4
2018-Jan-08 23:55N 36°16' E 023°15'1 0.6
2018-Jan-08 22:09N 36°16' E 023°14'0 0.0
2018-Jan-08 21:53N 36°16' E 023°14'0 0.6
2018-Jan-08 21:26N 36°15' E 023°14'0 0.7
2018-Jan-08 21:01N 36°15' E 023°14'0 0.7
2018-Jan-08 20:30N 36°15' E 023°14'0 0.6
2018-Jan-08 20:00N 36°15' E 023°13'0 0.7
2018-Jan-08 19:16N 36°15' E 023°13'1 0.8
2018-Jan-08 17:54N 36°16' E 023°12'1 3.5
2018-Jan-08 17:30N 36°17' E 023°11'5 9.1
2018-Jan-08 17:00N 36°20' E 023°07'0 0.7
2018-Jan-08 16:26N 36°20' E 023°07'1 0.5
2018-Jan-08 15:07N 36°20' E 023°08'0 0.6
2018-Jan-08 14:37N 36°20' E 023°08'0 0.7
2018-Jan-08 14:31N 36°20' E 023°08'0 0.8
2018-Jan-08 14:01N 36°19' E 023°08'0 0.8
2018-Jan-08 13:31N 36°19' E 023°09'0 0.7
2018-Jan-08 13:01N 36°19' E 023°09'0 0.7
2018-Jan-08 12:30N 36°18' E 023°09'0 0.6
2018-Jan-08 12:00N 36°18' E 023°09'0 0.4
2018-Jan-08 11:31N 36°18' E 023°10'0 0.4
2018-Jan-08 11:00N 36°18' E 023°10'0 0.4
2018-Jan-08 10:31N 36°18' E 023°10'0 0.3
2018-Jan-08 10:00N 36°18' E 023°10'0 0.2
2018-Jan-08 09:30N 36°18' E 023°10'0 0.2
2018-Jan-08 09:00N 36°18' E 023°11'0 0.2
2018-Jan-08 08:31N 36°18' E 023°11'0 0.3
2018-Jan-08 08:01N 36°18' E 023°11'0 0.2
2018-Jan-08 07:30N 36°18' E 023°11'0 0.2
2018-Jan-08 07:00N 36°18' E 023°11'0 0.3
2018-Jan-08 06:31N 36°18' E 023°11'0 0.4
2018-Jan-08 06:00N 36°18' E 023°11'3 0.2
2018-Jan-07 15:44N 36°21' E 023°10'0 0.8
2018-Jan-07 15:28N 36°21' E 023°10'0 0.7
2018-Jan-07 15:00N 36°20' E 023°10'0 0.8
2018-Jan-07 14:30N 36°20' E 023°09'0 0.8
2018-Jan-07 14:00N 36°20' E 023°09'0 0.8
2018-Jan-07 13:30N 36°19' E 023°09'0 0.8
2018-Jan-07 13:00N 36°19' E 023°09'0 0.7
2018-Jan-07 12:30N 36°19' E 023°08'0 0.5
2018-Jan-07 12:00N 36°19' E 023°08'0 0.5
2018-Jan-07 11:30N 36°18' E 023°08'0 0.4
2018-Jan-07 11:00N 36°18' E 023°08'0 0.5
2018-Jan-07 10:30N 36°18' E 023°07'1 1.6
2018-Jan-07 09:59N 36°18' E 023°06'0 0.6
2018-Jan-07 09:28N 36°18' E 023°06'0 0.5
2018-Jan-07 08:55N 36°19' E 023°06'18 7.5
2018-Jan-07 06:32N 36°19' E 023°28'0 3.3
2018-Jan-07 06:31N 36°19' E 023°28'0 1.0
2018-Jan-07 06:00N 36°19' E 023°28'0 0.4
2018-Jan-07 05:21N 36°19' E 023°28'1 0.5
2018-Jan-07 03:09N 36°19' E 023°26'0 0.7
2018-Jan-07 02:56N 36°18' E 023°26'0 0.7
2018-Jan-07 02:22N 36°18' E 023°26'0 0.7
2018-Jan-07 02:00N 36°18' E 023°25'0 0.8
2018-Jan-07 01:30N 36°18' E 023°25'1 0.7
2018-Jan-07 00:28N 36°18' E 023°24'0 0.5
2018-Jan-06 23:58N 36°18' E 023°24'0 0.5
2018-Jan-06 23:21N 36°18' E 023°23'0 0.5
2018-Jan-06 23:00N 36°18' E 023°23'0 0.4
2018-Jan-06 22:30N 36°18' E 023°23'0 0.3
2018-Jan-06 21:17N 36°18' E 023°22'0 0.4
2018-Jan-06 20:59N 36°18' E 023°22'0 0.4
2018-Jan-06 20:18N 36°18' E 023°22'0 0.3
2018-Jan-06 19:56N 36°18' E 023°22'0 0.4
2018-Jan-06 19:13N 36°18' E 023°21'0 0.3
2018-Jan-06 18:13N 36°18' E 023°21'0 0.3
2018-Jan-06 18:00N 36°18' E 023°21'0 0.2
2018-Jan-06 17:10N 36°17' E 023°21'1 0.4
2018-Jan-06 15:51N 36°17' E 023°20'0 0.5
2018-Jan-06 15:05N 36°17' E 023°20'0 0.5
2018-Jan-06 15:00N 36°17' E 023°20'1 0.5
2018-Jan-06 14:00N 36°17' E 023°19'1 0.5
2018-Jan-06 12:29N 36°16' E 023°19'0 0.5
2018-Jan-06 11:38N 36°16' E 023°18'0 0.4
2018-Jan-06 11:30N 36°16' E 023°18'0 0.3
2018-Jan-06 10:56N 36°16' E 023°18'0 0.3
2018-Jan-06 09:30N 36°15' E 023°18'1 0.3
2018-Jan-06 04:49N 36°15' E 023°16'0 0.3
2018-Jan-06 03:45N 36°15' E 023°16'1 0.4
2018-Jan-06 02:27N 36°16' E 023°15'0 0.4
2018-Jan-06 01:59N 36°16' E 023°15'0 0.4
2018-Jan-06 01:14N 36°16' E 023°15'0 0.5
2018-Jan-06 01:00N 36°16' E 023°14'0 0.4
2018-Jan-06 00:29N 36°16' E 023°14'0 0.3
2018-Jan-06 00:00N 36°16' E 023°14'0 0.2
2018-Jan-05 23:30N 36°16' E 023°14'0 0.3
2018-Jan-05 22:15N 36°16' E 023°14'0 0.4
2018-Jan-05 21:56N 36°16' E 023°13'1 0.4
2018-Jan-05 20:18N 36°15' E 023°13'  
2018-Jan-01 18:05N 36°19' E 023°04'0 0.1
2018-Jan-01 17:44N 36°19' E 023°04'0 0.1
2018-Jan-01 17:26N 36°19' E 023°04'0 0.0
2018-Jan-01 14:59N 36°19' E 023°04'0 0.1
2018-Jan-01 14:23N 36°19' E 023°04'0 0.0
2018-Jan-01 13:53N 36°19' E 023°04'0 0.0
2018-Jan-01 11:26N 36°19' E 023°04'0 0.0
2018-Jan-01 10:59N 36°19' E 023°04'0 0.1
2018-Jan-01 10:29N 36°19' E 023°04'0 0.2
2018-Jan-01 09:59N 36°19' E 023°04'0 0.0
2018-Jan-01 09:26N 36°19' E 023°04'0 0.0
2018-Jan-01 08:26N 36°19' E 023°04'0 0.0
2018-Jan-01 07:59N 36°19' E 023°04'0 0.0
2018-Jan-01 07:23N 36°19' E 023°04'0 0.1
2018-Jan-01 06:56N 36°19' E 023°04'0 0.1
2018-Jan-01 05:59N 36°19' E 023°04'  

Dump ship's entire track history